createdAt,value
2018-03-20T00:00:35.193Z,94565.98
2018-03-20T00:03:03.565Z,94568.42
2018-03-20T00:05:32.051Z,94574.91
2018-03-20T00:08:03.350Z,94575.35
2018-03-20T00:10:31.773Z,94566.23
2018-03-20T00:13:00.192Z,94571.14
2018-03-20T00:15:28.618Z,94564.80
2018-03-20T00:17:57.101Z,94569.27
2018-03-20T00:20:25.480Z,94564.53
2018-03-20T00:22:53.888Z,94564.93
2018-03-20T00:25:22.286Z,94570.50
2018-03-20T00:27:50.736Z,94574.48
2018-03-20T00:30:19.191Z,94563.33
2018-03-20T00:32:47.649Z,94567.23
2018-03-20T00:35:16.427Z,94574.12
2018-03-20T00:37:44.810Z,94569.63
2018-03-20T00:40:13.294Z,94569.09
2018-03-20T00:42:41.689Z,94565.86
2018-03-20T00:45:10.094Z,94570.23
2018-03-20T00:47:38.524Z,94569.39
2018-03-20T00:50:07.100Z,94564.27
2018-03-20T00:52:35.551Z,94567.28
2018-03-20T00:55:03.991Z,94574.06
2018-03-20T00:57:32.403Z,94563.63
2018-03-20T01:00:00.809Z,94574.69
2018-03-20T01:02:29.202Z,94565.95
2018-03-20T01:04:57.721Z,94563.14
2018-03-20T01:07:26.139Z,94572.57
2018-03-20T01:09:54.547Z,94563.84
2018-03-20T01:12:22.984Z,94567.97
2018-03-20T01:14:51.457Z,94571.23
2018-03-20T01:17:20.003Z,94564.27
2018-03-20T01:19:48.399Z,94564.69
2018-03-20T01:22:17.001Z,94565.41
2018-03-20T01:24:45.451Z,94557.25
2018-03-20T01:27:13.863Z,94554.73
2018-03-20T01:29:42.306Z,94555.75
2018-03-20T01:32:10.738Z,94550.49
2018-03-20T01:34:39.204Z,94550.48
2018-03-20T01:37:07.594Z,94547.36
2018-03-20T01:39:36.071Z,94542.45
2018-03-20T01:42:04.455Z,94546.65
2018-03-20T01:44:32.879Z,94546.97
2018-03-20T01:47:01.416Z,94544.52
2018-03-20T01:49:30.064Z,94546.31
2018-03-20T01:51:58.588Z,94542.91
2018-03-20T01:54:27.184Z,94540.10
2018-03-20T01:56:55.624Z,94534.69
2018-03-20T01:59:24.094Z,94531.03
2018-03-20T02:01:52.501Z,94526.09
2018-03-20T02:04:20.882Z,94526.58
2018-03-20T02:06:49.358Z,94517.66
2018-03-20T02:09:17.747Z,94521.33
2018-03-20T02:11:46.308Z,94520.87
2018-03-20T02:14:14.751Z,94522.78
2018-03-20T02:16:43.144Z,94529.84
2018-03-20T02:19:11.557Z,94527.87
2018-03-20T02:21:39.967Z,94525.28
2018-03-20T02:24:08.390Z,94518.23
2018-03-20T02:26:36.823Z,94515.56
2018-03-20T02:29:05.281Z,94521.32
2018-03-20T02:31:33.670Z,94519.73
2018-03-20T02:34:02.128Z,94519.05
2018-03-20T02:36:30.545Z,94514.80
2018-03-20T02:38:58.993Z,94524.62
2018-03-20T02:41:27.443Z,94517.18
2018-03-20T02:43:55.840Z,94528.72
2018-03-20T02:46:24.227Z,94528.70
2018-03-20T02:48:52.697Z,94523.55
2018-03-20T02:51:21.147Z,94519.30
2018-03-20T02:53:49.563Z,94514.34
2018-03-20T02:56:17.976Z,94519.98
2018-03-20T02:58:46.382Z,94520.22
2018-03-20T03:01:14.784Z,94516.50
2018-03-20T03:03:43.228Z,94520.28
2018-03-20T03:06:11.656Z,94506.33
2018-03-20T03:08:40.205Z,94507.98
2018-03-20T03:11:08.592Z,94494.55
2018-03-20T03:13:37.090Z,94501.38
2018-03-20T03:16:05.482Z,94489.58
2018-03-20T03:18:33.880Z,94499.28
2018-03-20T03:21:02.395Z,94492.47
2018-03-20T03:23:30.778Z,94495.44
2018-03-20T03:25:59.235Z,94480.88
2018-03-20T03:28:27.625Z,94482.09
2018-03-20T03:30:56.005Z,94473.73
2018-03-20T03:33:24.397Z,94473.01
2018-03-20T03:35:52.825Z,94474.44
2018-03-20T03:38:21.227Z,94481.98
2018-03-20T03:40:49.780Z,94488.38
2018-03-20T03:43:18.153Z,94478.10
2018-03-20T03:45:46.557Z,94482.26
2018-03-20T03:48:14.962Z,94485.99
2018-03-20T03:50:43.449Z,94480.91
2018-03-20T03:53:11.886Z,94480.84
2018-03-20T03:55:40.387Z,94480.48
2018-03-20T03:58:08.782Z,94482.95
2018-03-20T04:00:39.130Z,94483.77
2018-03-20T04:03:07.488Z,94484.16
2018-03-20T04:05:35.908Z,94485.92
2018-03-20T04:08:04.293Z,94481.27
2018-03-20T04:10:32.676Z,94480.23
2018-03-20T04:13:01.169Z,94478.75
2018-03-20T04:15:29.822Z,94471.14
2018-03-20T04:17:58.294Z,94470.87
2018-03-20T04:20:26.707Z,94472.64
2018-03-20T04:22:55.208Z,94467.80
2018-03-20T04:25:23.591Z,94471.75
2018-03-20T04:27:52.079Z,94472.52
2018-03-20T04:30:20.473Z,94474.20
2018-03-20T04:32:48.919Z,94473.72
2018-03-20T04:35:17.410Z,94468.39
2018-03-20T04:37:45.868Z,94466.72
2018-03-20T04:40:14.293Z,94468.50
2018-03-20T04:42:42.770Z,94466.06
2018-03-20T04:45:11.168Z,94462.63
2018-03-20T04:47:39.641Z,94459.77
2018-03-20T04:50:08.146Z,94458.98
2018-03-20T04:52:36.557Z,94467.05
2018-03-20T04:55:04.967Z,94478.56
2018-03-20T04:57:33.423Z,94486.34
2018-03-20T05:00:01.918Z,94488.16
2018-03-20T05:02:30.367Z,94496.23
2018-03-20T05:04:58.762Z,94493.38
2018-03-20T05:07:27.142Z,94497.72
2018-03-20T05:09:55.537Z,94494.98
2018-03-20T05:12:24.029Z,94493.30
2018-03-20T05:14:52.442Z,94494.22
2018-03-20T05:17:20.850Z,94486.28
2018-03-20T05:19:54.969Z,94494.77
2018-03-20T05:22:29.109Z,94490.74
2018-03-20T05:24:57.541Z,94493.94
2018-03-20T05:27:25.966Z,94497.12
2018-03-20T05:29:54.733Z,94490.94
2018-03-20T05:32:23.210Z,94489.07
2018-03-20T05:34:51.752Z,94487.33
2018-03-20T05:37:20.313Z,94485.35
2018-03-20T05:39:49.495Z,94487.87
2018-03-20T05:42:18.185Z,94482.55
2018-03-20T05:44:46.642Z,94488.23
2018-03-20T05:47:21.896Z,94490.22
2018-03-20T05:49:51.288Z,94482.25
2018-03-20T05:52:19.724Z,94483.91
2018-03-20T05:54:48.082Z,94484.08
2018-03-20T05:57:16.545Z,94487.12
2018-03-20T05:59:45.440Z,94492.14
2018-03-20T06:02:13.880Z,94490.16
2018-03-20T06:04:42.261Z,94486.60
2018-03-20T06:07:10.707Z,94492.34
2018-03-20T06:09:39.115Z,94497.22
2018-03-20T06:12:07.566Z,94499.75
2018-03-20T06:14:35.976Z,94514.17
2018-03-20T06:17:04.351Z,94502.90
2018-03-20T06:19:32.760Z,94511.86
2018-03-20T06:22:01.182Z,94509.07
2018-03-20T06:24:29.557Z,94519.90
2018-03-20T06:26:57.954Z,94511.30
2018-03-20T06:29:26.347Z,94514.58
2018-03-20T06:31:54.745Z,94511.47
2018-03-20T06:34:23.143Z,94518.91
2018-03-20T06:36:51.507Z,94517.90
2018-03-20T06:39:20.009Z,94522.44
2018-03-20T06:41:48.407Z,94524.98
2018-03-20T06:44:16.962Z,94528.13
2018-03-20T06:46:45.331Z,94527.98
2018-03-20T06:49:13.733Z,94525.92
2018-03-20T06:51:42.184Z,94537.02
2018-03-20T06:54:10.796Z,94533.75
2018-03-20T06:56:39.236Z,94529.92
2018-03-20T06:59:07.625Z,94541.88
2018-03-20T07:01:36.005Z,94539.59
2018-03-20T07:04:04.505Z,94540.66
2018-03-20T07:06:33.041Z,94544.50
2018-03-20T07:09:01.508Z,94545.02
2018-03-20T07:11:29.903Z,94547.38
2018-03-20T07:13:58.284Z,94543.17
2018-03-20T07:16:26.654Z,94540.78
2018-03-20T07:18:55.247Z,94535.90
2018-03-20T07:21:23.613Z,94534.80
2018-03-20T07:23:52.135Z,94541.80
2018-03-20T07:26:20.599Z,94552.55
2018-03-20T07:28:48.968Z,94548.06
2018-03-20T07:31:17.408Z,94553.97
2018-03-20T07:33:47.140Z,94565.22
2018-03-20T07:36:15.583Z,94567.64
2018-03-20T07:38:44.089Z,94574.65
2018-03-20T07:41:12.458Z,94579.72
2018-03-20T07:43:40.959Z,94582.17
2018-03-20T07:46:09.381Z,94587.64
2018-03-20T07:48:37.774Z,94582.39
2018-03-20T07:51:06.159Z,94586.23
2018-03-20T07:53:34.578Z,94592.39
2018-03-20T07:56:03.075Z,94595.08
2018-03-20T07:58:31.541Z,94595.49
2018-03-20T08:00:59.948Z,94604.02
2018-03-20T08:03:28.409Z,94606.95
2018-03-20T08:05:56.797Z,94603.89
2018-03-20T08:08:25.358Z,94601.18
2018-03-20T08:10:53.776Z,94610.89
2018-03-20T08:13:22.142Z,94606.45
2018-03-20T08:15:50.523Z,94614.89
2018-03-20T08:18:18.897Z,94618.86
2018-03-20T08:20:47.311Z,94628.73
2018-03-20T08:23:15.748Z,94621.19
2018-03-20T08:25:44.191Z,94626.91
2018-03-20T08:28:12.600Z,94632.01
2018-03-20T08:30:41.000Z,94632.55
2018-03-20T08:33:09.413Z,94634.53
2018-03-20T08:35:37.789Z,94638.20
2018-03-20T08:38:06.252Z,94636.94
2018-03-20T08:40:34.618Z,94644.80
2018-03-20T08:43:03.068Z,94647.02
2018-03-20T08:45:31.448Z,94649.98
2018-03-20T08:47:59.931Z,94654.52
2018-03-20T08:50:28.348Z,94652.72
2018-03-20T08:52:56.742Z,94654.96
2018-03-20T08:55:25.131Z,94662.71
2018-03-20T08:57:53.535Z,94659.41
2018-03-20T09:00:22.009Z,94665.72
2018-03-20T09:02:50.455Z,94673.64
2018-03-20T09:05:18.864Z,94674.56
2018-03-20T09:07:47.278Z,94678.05
2018-03-20T09:10:15.665Z,94677.86
2018-03-20T09:12:44.100Z,94683.56
2018-03-20T09:15:12.719Z,94688.27
2018-03-20T09:17:41.119Z,94697.81
2018-03-20T09:20:09.484Z,94697.92
2018-03-20T09:22:37.869Z,94705.83
2018-03-20T09:25:06.249Z,94701.30
2018-03-20T09:27:34.715Z,94707.12
2018-03-20T09:30:03.139Z,94707.39
2018-03-20T09:32:31.690Z,94706.09
2018-03-20T09:35:00.052Z,94715.25
2018-03-20T09:37:28.429Z,94709.41
2018-03-20T09:39:56.860Z,94714.03
2018-03-20T09:42:25.239Z,94715.18
2018-03-20T09:44:53.675Z,94712.49
2018-03-20T09:47:22.064Z,94708.42
2018-03-20T09:49:50.566Z,94721.97
2018-03-20T09:52:18.957Z,94724.30
2018-03-20T09:54:47.436Z,94735.20
2018-03-20T09:57:15.817Z,94736.05
2018-03-20T09:59:44.201Z,94750.30
2018-03-20T10:02:12.598Z,94754.02
2018-03-20T10:04:41.048Z,94760.19
2018-03-20T10:07:09.584Z,94759.98
2018-03-20T10:09:38.030Z,94766.07
2018-03-20T10:12:06.456Z,94766.84
2018-03-20T10:14:34.883Z,94767.74
2018-03-20T10:17:03.252Z,94774.95
2018-03-20T10:19:31.700Z,94783.91
2018-03-20T10:22:00.148Z,94790.47
2018-03-20T10:24:28.539Z,94794.75
2018-03-20T10:26:57.843Z,94806.89
2018-03-20T10:29:26.320Z,94807.64
2018-03-20T10:31:54.894Z,94812.14
2018-03-20T10:34:23.306Z,94806.92
2018-03-20T10:36:51.708Z,94820.84
2018-03-20T10:39:20.092Z,94825.16
2018-03-20T10:41:48.528Z,94823.77
2018-03-20T10:44:16.952Z,94837.17
2018-03-20T10:46:45.320Z,94830.07
2018-03-20T10:49:13.726Z,94836.92
2018-03-20T10:51:42.206Z,94828.64
2018-03-20T10:54:10.687Z,94842.55
2018-03-20T10:56:39.064Z,94846.08
2018-03-20T10:59:07.487Z,94853.41
2018-03-20T11:01:41.485Z,94854.50
2018-03-20T11:04:09.914Z,94857.33
2018-03-20T11:06:39.313Z,94856.73
2018-03-20T11:09:07.767Z,94873.50
2018-03-20T11:11:36.167Z,94869.33
2018-03-20T11:14:04.522Z,94865.28
2018-03-20T11:16:33.059Z,94870.42
2018-03-20T11:19:01.556Z,94878.09
2018-03-20T11:21:30.303Z,94875.58
2018-03-20T11:23:58.718Z,94878.45
2018-03-20T11:26:27.120Z,94880.16
2018-03-20T11:28:55.616Z,94889.41
2018-03-20T11:31:24.054Z,94891.22
2018-03-20T11:33:52.842Z,94889.41
2018-03-20T11:36:21.357Z,94896.14
2018-03-20T11:38:49.823Z,94901.23
2018-03-20T11:41:18.369Z,94898.93
2018-03-20T11:43:46.745Z,94906.95
2018-03-20T11:46:15.212Z,94912.63
2018-03-20T11:48:43.564Z,94908.58
2018-03-20T11:51:12.108Z,94914.07
2018-03-20T11:53:40.861Z,94912.97
2018-03-20T11:56:09.360Z,94916.37
2018-03-20T11:58:37.713Z,94918.67
2018-03-20T12:01:06.192Z,94922.88
2018-03-20T12:03:34.700Z,94919.46
2018-03-20T12:06:03.178Z,94920.80
2018-03-20T12:08:43.267Z,94930.48
2018-03-20T12:11:11.624Z,94927.84
2018-03-20T12:13:40.221Z,94932.16
2018-03-20T12:16:08.961Z,94936.80
2018-03-20T12:18:37.853Z,94941.59
2018-03-20T12:21:06.263Z,94943.15
2018-03-20T12:23:35.720Z,94941.19
2018-03-20T12:26:05.367Z,94951.23
2018-03-20T12:28:40.264Z,94947.67
2018-03-20T12:31:08.720Z,94943.59
2018-03-20T12:33:37.327Z,94950.63
2018-03-20T12:36:05.958Z,94956.16
2018-03-20T12:38:34.504Z,94962.78
2018-03-20T12:41:05.555Z,94972.66
2018-03-20T12:43:34.263Z,94976.36
2018-03-20T12:46:05.764Z,94963.30
2018-03-20T12:48:34.615Z,94966.78
2018-03-20T12:51:07.966Z,94969.52
2018-03-20T12:53:36.588Z,94973.30
2018-03-20T12:56:05.987Z,94975.45
2018-03-20T12:58:34.398Z,94982.94
2018-03-20T13:01:02.767Z,94976.92
2018-03-20T13:03:31.251Z,94982.96
2018-03-20T13:05:59.714Z,94989.83
2018-03-20T13:08:28.137Z,94989.58
2018-03-20T13:10:56.584Z,94996.88
2018-03-20T13:13:25.050Z,94996.20
2018-03-20T13:15:53.494Z,94998.23
2018-03-20T13:18:21.955Z,94989.34
2018-03-20T13:20:50.312Z,94985.86
2018-03-20T13:23:18.872Z,94997.70
2018-03-20T13:25:47.254Z,94993.45
2018-03-20T13:28:15.666Z,94990.36
2018-03-20T13:30:44.010Z,94995.36
2018-03-20T13:33:12.463Z,95003.36
2018-03-20T13:35:40.991Z,95010.23
2018-03-20T13:38:09.356Z,95007.97
2018-03-20T13:40:37.814Z,95022.92
2018-03-20T13:43:06.347Z,95023.55
2018-03-20T13:45:34.742Z,95027.56
2018-03-20T13:48:03.260Z,95033.49
2018-03-20T13:50:31.662Z,95039.98
2018-03-20T13:53:00.116Z,95033.02
2018-03-20T13:55:28.523Z,95040.77
2018-03-20T13:57:57.059Z,95048.97
2018-03-20T14:00:25.518Z,95041.97
2018-03-20T14:02:53.948Z,95047.59
2018-03-20T14:05:22.391Z,95046.58
2018-03-20T14:07:50.772Z,95056.34
2018-03-20T14:10:19.164Z,95062.71
2018-03-20T14:12:47.535Z,95055.81
2018-03-20T14:15:15.976Z,95061.78
2018-03-20T14:17:44.415Z,95062.48
2018-03-20T14:20:13.294Z,95068.95
2018-03-20T14:22:41.682Z,95079.75
2018-03-20T14:25:10.040Z,95081.95
2018-03-20T14:27:38.427Z,95079.81
2018-03-20T14:30:06.877Z,95089.91
2018-03-20T14:32:35.256Z,95094.14
2018-03-20T14:35:03.629Z,95092.49
2018-03-20T14:37:32.005Z,95099.81
2018-03-20T14:40:00.496Z,95096.17
2018-03-20T14:42:29.044Z,95103.52
2018-03-20T14:44:57.416Z,95099.91
2018-03-20T14:47:25.806Z,95100.66
2018-03-20T14:49:54.398Z,95100.77
2018-03-20T14:52:22.848Z,95104.39
2018-03-20T14:54:51.753Z,95101.09
2018-03-20T14:57:20.189Z,95116.91
2018-03-20T14:59:48.734Z,95123.54
2018-03-20T15:02:18.196Z,95119.22
2018-03-20T15:04:46.709Z,95117.80
2018-03-20T15:07:15.214Z,95125.28
2018-03-20T15:09:43.694Z,95128.83
2018-03-20T15:12:12.117Z,95122.92
2018-03-20T15:14:40.664Z,95134.61
2018-03-20T15:17:09.171Z,95133.84
2018-03-20T15:19:38.224Z,95139.47
2018-03-20T15:22:07.699Z,95140.82
2018-03-20T15:24:36.447Z,95139.97
2018-03-20T15:27:05.046Z,95132.08
2018-03-20T15:29:34.629Z,95140.13
2018-03-20T15:32:03.080Z,95146.51
2018-03-20T15:34:32.764Z,95148.04
2018-03-20T15:37:01.901Z,95156.73
2018-03-20T15:39:30.363Z,95157.81
2018-03-20T15:41:58.949Z,95157.82
2018-03-20T15:44:27.347Z,95156.73
2018-03-20T15:46:55.737Z,95168.59
2018-03-20T15:49:24.213Z,95173.39
2018-03-20T15:51:52.762Z,95181.35
2018-03-20T15:54:21.373Z,95182.44
2018-03-20T15:56:49.779Z,95187.66
2018-03-20T15:59:18.250Z,95182.76
2018-03-20T16:01:46.744Z,95189.50
2018-03-20T16:04:15.853Z,95191.92
2018-03-20T16:06:44.373Z,95201.39
2018-03-20T16:09:12.856Z,95198.31
2018-03-20T16:11:41.399Z,95206.77
2018-03-20T16:14:09.947Z,95207.87
2018-03-20T16:16:38.903Z,95212.53
2018-03-20T16:19:07.378Z,95217.33
2018-03-20T16:21:37.758Z,95224.42
2018-03-20T16:24:06.369Z,95228.33
2018-03-20T16:26:35.099Z,95241.56
2018-03-20T16:29:03.739Z,95240.52
2018-03-20T16:31:33.803Z,95251.47
2018-03-20T16:34:02.331Z,95254.75
2018-03-20T16:36:30.698Z,95258.94
2018-03-20T16:38:59.281Z,95256.88
2018-03-20T16:41:28.164Z,95264.44
2018-03-20T16:43:56.584Z,95270.36
2018-03-20T16:46:25.028Z,95274.17
2018-03-20T16:48:53.522Z,95274.84
2018-03-20T16:51:21.920Z,95279.05
2018-03-20T16:53:50.435Z,95280.83
2018-03-20T16:56:18.846Z,95280.09
2018-03-20T16:58:47.360Z,95284.21
2018-03-20T17:01:15.795Z,95288.55
2018-03-20T17:03:44.228Z,95288.61
2018-03-20T17:06:12.628Z,95293.23
2018-03-20T17:08:41.180Z,95297.05
2018-03-20T17:11:09.889Z,95301.86
2018-03-20T17:13:38.368Z,95304.27
2018-03-20T17:16:06.934Z,95304.53
2018-03-20T17:18:35.445Z,95302.47
2018-03-20T17:21:03.850Z,95309.02
2018-03-20T17:23:32.845Z,95315.02
2018-03-20T17:26:01.428Z,95316.20
2018-03-20T17:28:29.912Z,95325.34
2018-03-20T17:30:58.585Z,95329.01
2018-03-20T17:33:28.158Z,95336.60
2018-03-20T17:35:56.699Z,95337.31
2018-03-20T17:38:25.528Z,95338.14
2018-03-20T17:40:54.880Z,95344.05
2018-03-20T17:43:23.320Z,95345.70
2018-03-20T17:45:51.905Z,95347.59
2018-03-20T17:48:21.235Z,95351.50
2018-03-20T17:50:56.599Z,95353.13
2018-03-20T17:53:25.085Z,95363.17
2018-03-20T17:55:53.880Z,95361.21
2018-03-20T17:58:22.937Z,95368.28
2018-03-20T18:00:51.506Z,95371.72
2018-03-20T18:03:21.131Z,95376.50
2018-03-20T18:05:49.687Z,95381.93
2018-03-20T18:08:18.447Z,95394.17
2018-03-20T18:10:46.884Z,95399.72
2018-03-20T18:13:15.323Z,95402.11
2018-03-20T18:15:43.891Z,95409.68
2018-03-20T18:18:12.311Z,95405.71
2018-03-20T18:20:40.729Z,95414.91
2018-03-20T18:23:09.150Z,95418.25
2018-03-20T18:25:38.634Z,95423.39
2018-03-20T18:28:07.148Z,95426.08
2018-03-20T18:30:35.543Z,95438.48
2018-03-20T18:33:03.939Z,95435.45
2018-03-20T18:35:32.332Z,95441.47
2018-03-20T18:38:00.720Z,95440.40
2018-03-20T18:40:29.141Z,95438.65
2018-03-20T18:42:57.537Z,95439.52
2018-03-20T18:45:25.992Z,95444.00
2018-03-20T18:47:54.469Z,95443.46
2018-03-20T18:50:22.873Z,95447.59
2018-03-20T18:52:51.289Z,95445.78
2018-03-20T18:55:19.711Z,95448.33
2018-03-20T18:57:49.085Z,95453.61
2018-03-20T19:00:17.534Z,95457.05
2018-03-20T19:02:46.023Z,95453.66
2018-03-20T19:05:14.424Z,95459.17
2018-03-20T19:07:42.834Z,95461.59
2018-03-20T19:10:11.284Z,95472.31
2018-03-20T19:12:40.183Z,95476.48
2018-03-20T19:15:08.607Z,95481.11
2018-03-20T19:17:37.108Z,95474.63
2018-03-20T19:20:05.523Z,95480.33
2018-03-20T19:22:33.956Z,95485.32
2018-03-20T19:25:02.344Z,95487.20
2018-03-20T19:27:30.732Z,95497.83
2018-03-20T19:29:59.131Z,95506.82
2018-03-20T19:32:27.700Z,95506.73
2018-03-20T19:34:56.069Z,95507.59
2018-03-20T19:37:24.482Z,95513.02
2018-03-20T19:39:52.931Z,95520.05
2018-03-20T19:42:21.292Z,95515.12
2018-03-20T19:44:50.366Z,95520.47
2018-03-20T19:47:18.864Z,95528.91
2018-03-20T19:49:47.286Z,95536.92
2018-03-20T19:52:15.677Z,95537.31
2018-03-20T19:54:44.079Z,95548.69
2018-03-20T19:57:12.677Z,95547.70
2018-03-20T19:59:41.116Z,95547.11
2018-03-20T20:02:09.542Z,95550.02
2018-03-20T20:04:37.973Z,95559.38
2018-03-20T20:07:06.418Z,95555.92
2018-03-20T20:09:35.140Z,95561.23
2018-03-20T20:12:03.989Z,95569.81
2018-03-20T20:14:32.410Z,95566.66
2018-03-20T20:17:00.744Z,95565.37
2018-03-20T20:19:29.180Z,95568.85
2018-03-20T20:21:57.658Z,95570.79
2018-03-20T20:24:26.618Z,95570.97
2018-03-20T20:26:55.062Z,95572.92
2018-03-20T20:29:23.554Z,95578.70
2018-03-20T20:31:51.934Z,95579.28
2018-03-20T20:34:21.173Z,95582.77
2018-03-20T20:36:49.609Z,95585.55
2018-03-20T20:39:18.144Z,95591.66
2018-03-20T20:41:46.556Z,95593.34
2018-03-20T20:44:16.116Z,95592.67
2018-03-20T20:46:44.713Z,95594.80
2018-03-20T20:49:13.272Z,95596.11
2018-03-20T20:51:41.793Z,95601.73
2018-03-20T20:54:19.446Z,95601.34
2018-03-20T20:56:59.797Z,95605.77
2018-03-20T20:59:32.174Z,95612.25
2018-03-20T21:02:06.076Z,95612.14
2018-03-20T21:04:42.277Z,95615.00
2018-03-20T21:07:12.032Z,95614.03
2018-03-20T21:09:40.522Z,95614.84
2018-03-20T21:12:09.264Z,95614.53
2018-03-20T21:14:37.726Z,95616.53
2018-03-20T21:17:06.332Z,95622.44
2018-03-20T21:19:37.988Z,95619.03
2018-03-20T21:22:06.397Z,95618.46
2018-03-20T21:24:34.838Z,95629.03
2018-03-20T21:27:03.247Z,95618.72
2018-03-20T21:29:31.745Z,95624.14
2018-03-20T21:32:00.487Z,95629.56
2018-03-20T21:34:28.902Z,95627.61
2018-03-20T21:36:58.042Z,95633.77
2018-03-20T21:39:26.447Z,95633.34
2018-03-20T21:41:54.880Z,95633.46
2018-03-20T21:44:23.285Z,95634.74
2018-03-20T21:46:51.744Z,95638.37
2018-03-20T21:49:20.282Z,95638.03
2018-03-20T21:51:48.914Z,95642.89
2018-03-20T21:54:20.804Z,95637.83
2018-03-20T21:56:49.341Z,95637.50
2018-03-20T21:59:18.049Z,95635.95
2018-03-20T22:01:48.216Z,95635.17
2018-03-20T22:04:16.689Z,95642.20
2018-03-20T22:06:45.264Z,95642.05
2018-03-20T22:09:13.977Z,95646.36
2018-03-20T22:11:42.885Z,95647.54
2018-03-20T22:14:11.592Z,95654.73
2018-03-20T22:16:40.330Z,95650.42
2018-03-20T22:19:10.019Z,95655.21
2018-03-20T22:21:39.726Z,95664.23
2018-03-20T22:24:08.509Z,95661.22
2018-03-20T22:26:37.164Z,95669.62
2018-03-20T22:29:05.814Z,95663.99
2018-03-20T22:31:34.597Z,95669.46
2018-03-20T22:34:03.489Z,95672.83
2018-03-20T22:36:35.037Z,95671.69
2018-03-20T22:39:03.683Z,95677.72
2018-03-20T22:41:32.466Z,95683.39
2018-03-20T22:44:01.059Z,95679.02
2018-03-20T22:46:29.751Z,95685.47
2018-03-20T22:49:00.002Z,95688.02
2018-03-20T22:51:28.799Z,95689.56
2018-03-20T22:53:57.248Z,95687.05
2018-03-20T22:56:25.856Z,95687.19
2018-03-20T22:58:54.495Z,95687.90
2018-03-20T23:01:22.977Z,95682.56
2018-03-20T23:03:51.429Z,95684.11
2018-03-20T23:06:19.831Z,95682.78
2018-03-20T23:08:48.191Z,95682.89
2018-03-20T23:11:16.637Z,95683.59
2018-03-20T23:13:45.089Z,95684.41
2018-03-20T23:16:13.499Z,95686.86
2018-03-20T23:18:42.008Z,95687.86
2018-03-20T23:21:10.479Z,95692.69
2018-03-20T23:23:38.932Z,95688.72
2018-03-20T23:26:07.338Z,95696.48
2018-03-20T23:28:35.936Z,95701.98
2018-03-20T23:31:06.807Z,95707.39
2018-03-20T23:33:35.201Z,95709.09
2018-03-20T23:36:04.074Z,95711.99
2018-03-20T23:38:32.548Z,95713.02
2018-03-20T23:41:05.024Z,95714.54
2018-03-20T23:43:33.531Z,95721.67
2018-03-20T23:46:02.061Z,95722.25
2018-03-20T23:48:31.151Z,95725.59
2018-03-20T23:50:59.606Z,95733.37
2018-03-20T23:53:28.063Z,95738.45
2018-03-20T23:55:56.490Z,95740.41
2018-03-20T23:58:33.159Z,95744.30
